Time;durP1;ratioP1;P1;durP2;ratioP2;P2;SDS_P1;SDS_P2;PMS_P1;PMS_P2;Temp;Humidity;BMP_temperature;BMP_pressure;BME280_temperature;BME280_humidity;BME280_pressure;Samples;Min_cycle;Max_cycle;Signal;HPM_P1;HPM_P2
2021/05/02 00:01:07;;;;;;;22.40;17.42;;;;;;;12.92;32.38;100618.22;4907393;28;96815;-71
2021/05/02 00:03:35;;;;;;;19.15;15.70;;;;;;;12.96;32.36;100614.72;4907900;28;96910;-72
2021/05/02 00:06:04;;;;;;;19.88;15.50;;;;;;;12.90;32.67;100612.88;4905849;28;97873;-72
2021/05/02 00:08:33;;;;;;;17.95;15.45;;;;;;;12.91;32.50;100621.78;4907232;28;97550;-72
2021/05/02 00:11:02;;;;;;;17.77;14.32;;;;;;;12.87;32.54;100614.63;4907827;28;96828;-71
2021/05/02 00:13:30;;;;;;;18.55;14.43;;;;;;;12.84;32.62;100609.25;4916497;28;97366;-71
2021/05/02 00:15:57;;;;;;;18.15;14.85;;;;;;;12.84;32.68;100614.56;4906645;28;98077;-74
2021/05/02 00:18:26;;;;;;;18.67;15.02;;;;;;;12.83;32.61;100610.13;4905566;28;96821;-72
2021/05/02 00:20:54;;;;;;;21.00;15.23;;;;;;;12.82;32.55;100617.25;4921313;28;97091;-72
2021/05/02 00:23:22;;;;;;;18.48;14.60;;;;;;;12.84;32.65;100614.56;4908269;28;97112;-72
2021/05/02 00:25:51;;;;;;;38.70;24.35;;;;;;;12.87;32.57;100609.28;4906150;28;97185;-71
2021/05/02 00:28:19;;;;;;;29.40;21.15;;;;;;;12.81;32.75;100618.13;4896811;28;97639;-71
2021/05/02 00:30:48;;;;;;;26.15;18.95;;;;;;;12.81;32.90;100612.78;4918924;28;96910;-74
2021/05/02 00:33:15;;;;;;;23.50;18.90;;;;;;;12.80;32.94;100618.13;4906529;28;96789;-71
2021/05/02 00:35:43;;;;;;;27.60;19.02;;;;;;;12.79;32.81;100611.88;4922587;28;98087;-74
2021/05/02 00:38:11;;;;;;;22.17;16.10;;;;;;;12.81;32.89;100614.56;4905191;28;97768;-71
2021/05/02 00:40:40;;;;;;;21.23;17.90;;;;;;;12.78;32.89;100609.19;4906366;28;97578;-75
2021/05/02 00:43:12;;;;;;;19.75;15.60;;;;;;;12.77;32.89;100615.41;4907503;28;96790;-71
2021/05/02 00:45:48;;;;;;;20.85;16.58;;;;;;;12.72;33.08;100615.38;4921379;28;97044;-74
2021/05/02 00:48:21;;;;;;;18.77;15.15;;;;;;;12.72;33.01;100609.13;4905084;28;97369;-72
2021/05/02 00:50:55;;;;;;;19.67;15.98;;;;;;;12.67;33.13;100611.78;4921465;28;96897;-72
2021/05/02 00:53:35;;;;;;;18.45;15.68;;;;;;;12.62;33.47;100609.94;4905941;28;96926;-72
2021/05/02 00:56:13;;;;;;;19.65;15.65;;;;;;;12.61;33.49;100609.03;4904271;28;98400;-76
2021/05/02 00:58:45;;;;;;;20.10;15.25;;;;;;;12.58;33.40;100606.34;4906450;28;96965;-74
2021/05/02 01:01:19;;;;;;;19.73;15.93;;;;;;;12.58;33.42;100610.78;4906655;28;96759;-72
2021/05/02 01:03:47;;;;;;;19.25;16.23;;;;;;;12.52;33.21;100614.28;4908478;28;96793;-72
2021/05/02 01:06:15;;;;;;;21.77;16.75;;;;;;;12.53;33.46;100613.38;4905084;28;98435;-72
2021/05/02 01:08:42;;;;;;;23.55;17.35;;;;;;;12.48;33.52;100609.78;4906362;28;96817;-72
2021/05/02 01:11:12;;;;;;;20.75;16.73;;;;;;;12.47;33.68;100604.44;4907345;28;97083;-72
2021/05/02 01:13:45;;;;;;;21.58;16.10;;;;;;;12.45;33.56;100601.75;4915125;28;97061;-72
2021/05/02 01:16:14;;;;;;;23.27;17.20;;;;;;;12.47;33.57;100607.09;4906595;28;98139;-72
2021/05/02 01:18:42;;;;;;;22.17;17.20;;;;;;;12.47;33.62;100597.34;4910478;28;97791;-72
2021/05/02 01:21:11;;;;;;;21.08;16.13;;;;;;;12.45;33.73;100603.53;4925086;28;97268;-75
2021/05/02 01:23:40;;;;;;;22.50;15.85;;;;;;;12.44;33.85;100607.06;4911238;28;96729;-73
2021/05/02 01:26:08;;;;;;;23.55;17.25;;;;;;;12.42;33.88;100608.84;4910156;28;102016;-72
2021/05/02 01:28:36;;;;;;;22.98;16.52;;;;;;;12.41;33.75;100612.38;4909278;28;98919;-72
2021/05/02 01:31:03;;;;;;;25.23;17.60;;;;;;;12.39;33.76;100609.69;4910695;28;96831;-72
2021/05/02 01:33:31;;;;;;;22.05;16.58;;;;;;;12.38;34.04;100607.00;4910554;28;96789;-72
2021/05/02 01:35:59;;;;;;;27.20;17.40;;;;;;;12.33;34.15;100606.06;4910673;28;96984;-74
2021/05/02 01:38:28;;;;;;;21.25;15.95;;;;;;;12.32;33.80;100607.84;4909742;28;97718;-73
2021/05/02 01:40:58;;;;;;;25.48;18.05;;;;;;;12.27;34.21;100600.66;4925961;28;96847;-72
2021/05/02 01:43:26;;;;;;;22.83;16.88;;;;;;;12.28;34.09;100599.75;4912159;28;97321;-72
2021/05/02 01:45:53;;;;;;;23.00;17.15;;;;;;;12.24;34.35;100597.97;4911916;28;97928;-73
2021/05/02 01:48:22;;;;;;;22.77;17.42;;;;;;;12.20;34.36;100602.34;4912240;28;97502;-71
2021/05/02 01:50:51;;;;;;;26.40;16.65;;;;;;;12.14;34.47;100611.13;4907924;28;97294;-70
2021/05/02 01:53:19;;;;;;;23.88;17.98;;;;;;;12.12;34.49;100607.56;4924926;28;97238;-71
2021/05/02 01:55:47;;;;;;;21.92;16.38;;;;;;;12.11;34.48;100604.88;4910544;28;97323;-71
2021/05/02 01:58:16;;;;;;;25.85;17.98;;;;;;;12.10;34.72;100606.66;4924559;28;98090;-70
2021/05/02 02:00:46;;;;;;;25.17;17.88;;;;;;;12.12;34.66;100604.91;4908503;28;96912;-71
2021/05/02 02:03:14;;;;;;;23.27;17.23;;;;;;;12.12;34.59;100604.91;4908321;28;96869;-70
2021/05/02 02:05:42;;;;;;;25.20;17.77;;;;;;;12.11;34.70;100597.78;4908968;28;97075;-71
2021/05/02 02:08:10;;;;;;;25.80;17.80;;;;;;;12.07;34.78;100598.59;4907477;28;98349;-71
2021/05/02 02:10:38;;;;;;;24.60;17.20;;;;;;;12.06;34.62;100603.91;4910357;28;97655;-72
2021/05/02 02:13:08;;;;;;;24.45;17.42;;;;;;;12.07;34.72;100598.59;4901953;28;97371;-71
2021/05/02 02:15:38;;;;;;;23.00;16.98;;;;;;;12.06;34.89;100602.16;4923790;28;97087;-72
2021/05/02 02:18:07;;;;;;;24.75;18.10;;;;;;;12.02;34.74;100592.31;4910846;28;98527;-72
2021/05/02 02:20:38;;;;;;;30.80;23.88;;;;;;;11.95;36.75;100597.56;4922853;28;98025;-72
2021/05/02 02:23:09;;;;;;;25.83;19.15;;;;;;;12.00;36.12;100595.84;4924153;28;97313;-71
2021/05/02 02:25:41;;;;;;;25.13;18.10;;;;;;;11.98;35.98;100587.81;4909135;28;97894;-72
2021/05/02 02:28:11;;;;;;;25.70;18.27;;;;;;;12.00;35.83;100596.75;4923149;28;97786;-73
2021/05/02 02:30:42;;;;;;;26.90;18.67;;;;;;;11.99;35.79;100584.28;4909779;28;98005;-72
2021/05/02 02:33:10;;;;;;;27.15;18.83;;;;;;;12.00;35.35;100586.06;4906470;28;96813;-72
2021/05/02 02:35:42;;;;;;;23.65;17.67;;;;;;;11.98;35.78;100594.94;4922331;28;98179;-72
2021/05/02 02:38:09;;;;;;;26.48;17.88;;;;;;;11.94;35.69;100583.31;4909000;28;97334;-72
2021/05/02 02:40:38;;;;;;;25.80;18.77;;;;;;;11.90;35.58;100589.53;4907919;28;96809;-71
2021/05/02 02:43:06;;;;;;;25.45;17.85;;;;;;;11.85;35.81;100591.19;4910241;28;97140;-72
2021/05/02 02:45:35;;;;;;;26.42;18.77;;;;;;;11.79;35.50;100580.47;4899047;28;97166;-72
2021/05/02 02:48:05;;;;;;;28.55;19.20;;;;;;;11.76;35.72;100577.75;4908508;28;96812;-72
2021/05/02 02:50:33;;;;;;;25.50;19.50;;;;;;;11.75;35.79;100581.31;4909626;28;97197;-72
2021/05/02 02:53:05;;;;;;;26.13;18.10;;;;;;;11.71;35.84;100587.47;4909730;28;96783;-72
2021/05/02 02:55:37;;;;;;;25.98;17.50;;;;;;;11.64;36.03;100582.03;4908157;28;96838;-71
2021/05/02 02:58:09;;;;;;;24.00;17.75;;;;;;;11.57;36.10;100583.72;4922634;28;98026;-72
2021/05/02 03:00:37;;;;;;;25.73;19.27;;;;;;;11.53;36.13;100589.88;4908293;28;96805;-70
2021/05/02 03:03:09;;;;;;;28.00;18.88;;;;;;;11.49;36.07;100596.03;4909472;28;96857;-71
2021/05/02 03:05:37;;;;;;;27.58;19.63;;;;;;;11.47;36.17;100594.25;4908043;28;96845;-72
2021/05/02 03:08:05;;;;;;;31.23;19.50;;;;;;;11.40;36.35;100593.25;4908287;28;97476;-72
2021/05/02 03:10:33;;;;;;;27.15;18.95;;;;;;;11.37;36.20;100593.22;4908623;28;97267;-73
2021/05/02 03:13:01;;;;;;;29.00;18.83;;;;;;;11.36;36.45;100596.72;4905841;28;98004;-72
2021/05/02 03:15:29;;;;;;;29.88;20.27;;;;;;;11.33;36.37;100596.69;4906305;28;100415;-71
2021/05/02 03:18:03;;;;;;;30.27;19.60;;;;;;;11.32;36.49;100592.25;4923772;28;97167;-72
2021/05/02 03:20:34;;;;;;;30.08;20.00;;;;;;;11.35;36.66;100600.28;4922863;28;97461;-74
2021/05/02 03:23:11;;;;;;;30.23;19.25;;;;;;;11.29;36.63;100601.94;4907857;28;96870;-73
2021/05/02 03:25:41;;;;;;;28.25;18.48;;;;;;;11.22;36.51;100598.25;4908660;28;97840;-72
2021/05/02 03:28:11;;;;;;;28.42;19.85;;;;;;;11.19;36.43;100601.78;4908799;28;97842;-73
2021/05/02 03:30:41;;;;;;;27.10;18.77;;;;;;;11.19;36.59;100607.13;4908908;28;96930;-73
2021/05/02 03:33:10;;;;;;;27.13;19.63;;;;;;;11.20;36.42;100605.34;4907792;28;96612;-73
2021/05/02 03:35:40;;;;;;;28.33;18.98;;;;;;;11.20;36.61;100608.00;4908144;28;97942;-72
2021/05/02 03:38:15;;;;;;;26.40;18.88;;;;;;;11.23;36.59;100616.06;4921517;28;96818;-72
2021/05/02 03:40:43;;;;;;;29.55;19.50;;;;;;;11.22;36.66;100611.59;4907326;28;96728;-72
2021/05/02 03:43:10;;;;;;;26.88;18.60;;;;;;;11.20;36.59;100611.56;4908694;28;96663;-73
2021/05/02 03:45:38;;;;;;;26.33;18.63;;;;;;;11.18;36.63;100612.41;4920226;28;97975;-72
2021/05/02 03:48:06;;;;;;;27.02;19.35;;;;;;;11.17;36.78;100615.94;4907090;28;97917;-73
2021/05/02 03:50:34;;;;;;;26.50;19.15;;;;;;;11.14;36.80;100616.78;4902535;28;96849;-72
2021/05/02 03:53:03;;;;;;;27.75;18.63;;;;;;;11.10;36.85;100619.38;4906528;28;97784;-70
2021/05/02 03:55:39;;;;;;;27.90;19.27;;;;;;;11.08;37.07;100619.38;4904378;28;98156;-71
2021/05/02 03:58:11;;;;;;;34.65;25.27;;;;;;;11.00;38.78;100617.44;4907393;28;100006;-72
2021/05/02 04:00:39;;;;;;;27.63;20.02;;;;;;;11.10;38.23;100625.59;4919713;28;97193;-72
2021/05/02 04:03:06;;;;;;;27.33;20.02;;;;;;;11.10;37.81;100617.59;4907674;28;97245;-72
2021/05/02 04:05:34;;;;;;;28.95;20.25;;;;;;;11.05;37.76;100621.06;4900001;28;99148;-70
2021/05/02 04:08:02;;;;;;;30.52;19.27;;;;;;;11.01;37.68;100614.78;4905026;28;97801;-73
2021/05/02 04:10:30;;;;;;;26.33;19.00;;;;;;;10.98;37.59;100624.50;4907689;28;97525;-74
2021/05/02 04:12:57;;;;;;;28.77;19.88;;;;;;;10.98;37.57;100630.72;4907987;28;97288;-72
2021/05/02 04:15:25;;;;;;;24.42;17.73;;;;;;;11.00;37.42;100628.06;4920914;28;96874;-71
2021/05/02 04:17:52;;;;;;;31.60;20.17;;;;;;;11.03;37.15;100631.69;4920065;28;96832;-71
2021/05/02 04:20:20;;;;;;;34.70;26.25;;;;;;;10.97;38.98;100620.97;4905135;28;96880;-72
2021/05/02 04:22:48;;;;;;;26.02;20.50;;;;;;;11.03;38.47;100628.16;4907363;28;96963;-73
2021/05/02 04:25:17;;;;;;;27.40;20.27;;;;;;;11.00;38.30;100636.06;4921700;28;97014;-72
2021/05/02 04:27:44;;;;;;;32.10;21.45;;;;;;;10.95;38.14;100632.44;4905371;28;98973;-72
2021/05/02 04:30:12;;;;;;;30.77;19.58;;;;;;;10.94;38.05;100636.84;4907422;28;96883;-71
2021/05/02 04:32:39;;;;;;;26.70;19.58;;;;;;;10.94;37.89;100639.50;4909063;28;96851;-71
2021/05/02 04:35:07;;;;;;;27.38;20.02;;;;;;;10.96;37.88;100643.09;4907376;28;96939;-71
2021/05/02 04:37:35;;;;;;;27.75;19.30;;;;;;;11.00;37.74;100644.06;4908848;28;101246;-72
2021/05/02 04:40:03;;;;;;;29.95;20.70;;;;;;;10.98;37.82;100646.69;4907527;28;98112;-71
2021/05/02 04:42:32;;;;;;;27.45;20.10;;;;;;;11.02;37.79;100645.88;4908496;28;97480;-71
2021/05/02 04:44:59;;;;;;;29.77;20.45;;;;;;;11.04;37.71;100641.47;4921445;28;99861;-71
2021/05/02 04:47:27;;;;;;;30.77;20.45;;;;;;;11.08;37.66;100646.00;4905646;28;98663;-73
2021/05/02 04:49:54;;;;;;;29.25;20.77;;;;;;;11.06;37.66;100644.16;4906688;28;97201;-72
2021/05/02 04:52:22;;;;;;;27.25;19.95;;;;;;;11.02;37.65;100647.63;4911622;28;97547;-73
2021/05/02 04:54:49;;;;;;;31.23;20.67;;;;;;;10.99;37.63;100652.94;4910424;28;97909;-72
2021/05/02 04:57:16;;;;;;;30.60;20.85;;;;;;;10.94;37.77;100649.28;4908749;28;97175;-73
2021/05/02 04:59:44;;;;;;;33.88;20.88;;;;;;;10.93;37.99;100652.81;4910620;28;97265;-71
2021/05/02 05:02:12;;;;;;;28.52;20.75;;;;;;;10.90;37.69;100655.44;4925545;28;96949;-73
2021/05/02 05:04:39;;;;;;;28.52;20.38;;;;;;;10.91;37.72;100654.53;4909916;28;97034;-73
2021/05/02 05:07:07;;;;;;;27.40;20.33;;;;;;;10.90;37.65;100658.09;4908184;28;97812;-73
2021/05/02 05:09:35;;;;;;;39.50;28.45;;;;;;;10.83;39.60;100657.06;4908968;28;96749;-73
2021/05/02 05:12:02;;;;;;;32.40;23.85;;;;;;;10.96;38.89;100655.50;4909344;28;96882;-72
2021/05/02 05:14:29;;;;;;;28.65;21.25;;;;;;;10.96;38.73;100659.09;4909956;28;98053;-73
2021/05/02 05:16:58;;;;;;;26.15;20.33;;;;;;;10.97;38.52;100655.56;4910052;28;98031;-73
2021/05/02 05:19:26;;;;;;;30.05;21.13;;;;;;;10.96;38.48;100663.50;4909169;28;97013;-73
2021/05/02 05:21:53;;;;;;;31.20;20.27;;;;;;;10.97;38.25;100659.97;4910346;28;97298;-72
2021/05/02 05:24:20;;;;;;;30.85;20.83;;;;;;;10.95;38.28;100664.38;4909244;28;96963;-72
2021/05/02 05:26:48;;;;;;;25.00;18.70;;;;;;;10.96;38.25;100663.50;4924999;28;98985;-72
2021/05/02 05:29:15;;;;;;;30.88;20.70;;;;;;;10.96;38.22;100667.06;4907768;28;97701;-73
2021/05/02 05:31:45;;;;;;;28.13;20.05;;;;;;;10.92;38.28;100664.34;4909275;28;96809;-73
2021/05/02 05:34:14;;;;;;;29.83;20.27;;;;;;;10.93;38.15;100668.78;4922354;28;96867;-71
2021/05/02 05:36:41;;;;;;;31.52;21.10;;;;;;;10.93;38.14;100666.13;4909347;28;100805;-71
2021/05/02 05:39:08;;;;;;;28.02;20.70;;;;;;;10.93;38.14;100664.38;4910396;28;96863;-72
2021/05/02 05:41:35;;;;;;;32.08;21.05;;;;;;;10.91;38.23;100673.19;4911739;28;98080;-72
2021/05/02 05:44:03;;;;;;;31.77;21.52;;;;;;;10.88;38.12;100676.69;4923523;28;99306;-73
2021/05/02 05:46:30;;;;;;;30.25;20.73;;;;;;;10.89;38.27;100669.59;4924478;28;97599;-71
2021/05/02 05:48:58;;;;;;;31.27;21.50;;;;;;;10.87;38.25;100677.56;4908180;28;96854;-72
2021/05/02 05:51:26;;;;;;;29.25;21.13;;;;;;;10.84;38.22;100679.25;4905970;28;96990;-72
2021/05/02 05:53:54;;;;;;;29.27;20.98;;;;;;;10.80;38.20;100678.31;4908335;28;100064;-72
2021/05/02 05:56:21;;;;;;;30.30;21.25;;;;;;;10.76;38.34;100680.88;4912998;28;97262;-72
2021/05/02 05:58:48;;;;;;;31.40;22.02;;;;;;;10.77;38.29;100680.03;4905309;28;96803;-72
2021/05/02 06:01:15;;;;;;;28.98;21.00;;;;;;;10.73;38.27;100688.81;4908020;28;97409;-72
2021/05/02 06:03:42;;;;;;;30.98;20.80;;;;;;;10.70;38.39;100699.41;4906813;28;99307;-71
2021/05/02 06:06:10;;;;;;;30.10;20.77;;;;;;;10.63;38.39;100693.06;4903365;28;96774;-73
2021/05/02 06:08:38;;;;;;;30.80;22.17;;;;;;;10.60;38.35;100690.34;4920094;28;96794;-72
2021/05/02 06:11:06;;;;;;;29.45;20.80;;;;;;;10.57;38.45;100694.72;4904359;28;97205;-71
2021/05/02 06:13:33;;;;;;;28.55;20.95;;;;;;;10.55;38.71;100699.09;4904661;28;98973;-71
2021/05/02 06:16:00;;;;;;;39.93;30.33;;;;;;;10.47;39.96;100698.03;4903995;28;97523;-72
2021/05/02 06:18:28;;;;;;;30.75;21.85;;;;;;;10.59;39.57;100703.63;4897890;28;96991;-71
2021/05/02 06:20:57;;;;;;;28.33;20.40;;;;;;;10.64;39.25;100716.16;4904374;28;97153;-71
2021/05/02 06:23:24;;;;;;;30.52;21.10;;;;;;;10.64;38.97;100715.25;4906521;28;96827;-72
2021/05/02 06:25:53;;;;;;;29.92;21.10;;;;;;;10.63;38.93;100714.34;4905598;28;98953;-71
2021/05/02 06:28:20;;;;;;;29.02;20.85;;;;;;;10.59;38.86;100717.84;4894179;28;96906;-70
2021/05/02 06:30:48;;;;;;;28.63;20.80;;;;;;;10.59;38.77;100719.59;4904090;28;96965;-69
2021/05/02 06:33:15;;;;;;;28.30;19.88;;;;;;;10.51;38.90;100722.09;4903612;28;96963;-72
2021/05/02 06:35:43;;;;;;;29.00;20.25;;;;;;;10.48;38.87;100724.72;4919830;28;97939;-72
2021/05/02 06:38:10;;;;;;;30.08;21.00;;;;;;;10.47;39.02;100719.31;4901492;28;96932;-71
2021/05/02 06:40:37;;;;;;;28.48;20.77;;;;;;;10.46;39.05;100722.88;4904518;28;96872;-71
2021/05/02 06:43:06;;;;;;;31.90;21.65;;;;;;;10.50;38.81;100733.63;4906189;28;97321;-71
2021/05/02 06:45:34;;;;;;;27.45;19.20;;;;;;;10.45;38.87;100729.94;4907586;28;97081;-70
2021/05/02 06:48:01;;;;;;;30.27;19.98;;;;;;;10.42;38.88;100735.22;4906084;28;97025;-72
2021/05/02 06:50:29;;;;;;;31.65;21.40;;;;;;;10.41;38.71;100735.16;4921568;28;97246;-71
2021/05/02 06:52:56;;;;;;;34.00;20.65;;;;;;;10.36;38.79;100740.34;4906934;28;96977;-72
2021/05/02 06:55:24;;;;;;;31.65;21.75;;;;;;;10.39;38.78;100747.50;4905748;28;96862;-72
2021/05/02 06:57:51;;;;;;;31.75;20.83;;;;;;;10.37;39.00;100746.56;4903872;28;96786;-73
2021/05/02 07:00:20;;;;;;;30.85;20.48;;;;;;;10.31;38.98;100755.31;4912349;28;96871;-73
2021/05/02 07:02:47;;;;;;;28.48;20.00;;;;;;;10.32;38.67;100754.44;4905840;28;97864;-73
2021/05/02 07:05:15;;;;;;;28.17;20.02;;;;;;;10.33;38.83;100761.59;4905381;28;97202;-71
2021/05/02 07:07:42;;;;;;;30.40;19.90;;;;;;;10.33;38.70;100758.91;4906465;28;97776;-73
2021/05/02 07:10:10;;;;;;;30.90;20.60;;;;;;;10.30;38.77;100755.31;4916382;28;96906;-71
2021/05/02 07:12:37;;;;;;;31.23;20.67;;;;;;;10.28;38.70;100765.00;4896120;28;98073;-71
2021/05/02 07:15:06;;;;;;;32.67;22.90;;;;;;;10.28;38.71;100763.25;4903255;28;100278;-71
2021/05/02 07:17:34;;;;;;;33.65;21.67;;;;;;;10.30;38.62;100768.59;4902793;28;97699;-71
2021/05/02 07:20:03;;;;;;;31.70;21.42;;;;;;;10.28;38.65;100771.22;4902901;28;96782;-72
2021/05/02 07:22:33;;;;;;;34.03;21.95;;;;;;;10.25;38.48;100776.47;4893291;28;97609;-72
2021/05/02 07:25:00;;;;;;;32.35;21.88;;;;;;;10.23;38.46;100774.66;4902772;28;97486;-73
2021/05/02 07:27:28;;;;;;;32.72;21.70;;;;;;;10.17;38.51;100778.94;4904489;28;96885;-72
2021/05/02 07:29:55;;;;;;;38.20;22.58;;;;;;;10.23;38.37;100776.44;4904182;28;96856;-73
2021/05/02 07:32:22;;;;;;;36.85;22.58;;;;;;;10.21;38.39;100775.50;4896899;28;98344;-72
2021/05/02 07:34:50;;;;;;;35.30;22.63;;;;;;;10.22;38.23;100776.41;4919453;28;97816;-71
2021/05/02 07:37:18;;;;;;;35.67;23.10;;;;;;;10.15;38.42;100785.09;4919584;28;96867;-72
2021/05/02 07:39:45;;;;;;;40.28;24.35;;;;;;;10.06;38.50;100780.47;4917349;28;97353;-71
2021/05/02 07:42:13;;;;;;;34.58;22.10;;;;;;;10.02;38.43;100783.03;4904160;28;97921;-71
2021/05/02 07:44:40;;;;;;;38.05;22.33;;;;;;;10.02;38.51;100783.03;4903886;28;98569;-72
2021/05/02 07:47:07;;;;;;;33.50;23.08;;;;;;;10.04;38.34;100791.94;4902624;28;96965;-72
2021/05/02 07:49:35;;;;;;;37.28;23.27;;;;;;;10.10;38.32;100790.31;4903491;28;97426;-73
2021/05/02 07:52:04;;;;;;;37.10;22.80;;;;;;;10.19;37.93;100793.16;4900983;28;97873;-72
2021/05/02 07:54:32;;;;;;;38.80;22.73;;;;;;;10.25;37.99;100794.19;4900132;28;97241;-72
2021/05/02 07:56:59;;;;;;;35.90;22.75;;;;;;;10.23;38.06;100793.25;4901637;28;97028;-74
2021/05/02 07:59:27;;;;;;;37.67;23.83;;;;;;;10.26;38.07;100795.97;4904638;28;97223;-72
2021/05/02 08:01:55;;;;;;;35.03;22.80;;;;;;;10.25;37.84;100799.53;4903820;28;100596;-73
2021/05/02 08:04:22;;;;;;;29.67;20.25;;;;;;;10.20;37.88;100794.06;4903127;28;97949;-74
2021/05/02 08:06:50;;;;;;;30.77;20.23;;;;;;;10.26;37.67;100794.22;4904005;28;96782;-73
2021/05/02 08:09:18;;;;;;;28.38;18.65;;;;;;;10.25;37.70;100794.19;4904332;28;97228;-71
2021/05/02 08:11:46;;;;;;;30.85;19.63;;;;;;;10.21;37.68;100799.44;4916883;28;98425;-73
2021/05/02 08:14:13;;;;;;;30.75;19.38;;;;;;;10.23;37.71;100795.94;4919312;28;100879;-73
2021/05/02 08:16:41;;;;;;;28.05;17.80;;;;;;;10.23;37.65;100800.38;4904404;28;97586;-71
2021/05/02 08:19:08;;;;;;;26.95;17.73;;;;;;;10.28;37.49;100804.91;4900619;28;97266;-74
2021/05/02 08:21:36;;;;;;;25.52;17.50;;;;;;;10.35;37.49;100804.16;4902926;28;97021;-73
2021/05/02 08:24:04;;;;;;;26.63;17.75;;;;;;;10.39;37.10;100812.25;4904190;28;97806;-74
2021/05/02 08:26:33;;;;;;;27.75;17.90;;;;;;;10.36;37.23;100814.84;4914260;28;96876;-71
2021/05/02 08:29:00;;;;;;;25.58;17.63;;;;;;;10.38;37.04;100815.75;4894745;28;98079;-71
2021/05/02 08:31:29;;;;;;;25.10;16.88;;;;;;;10.39;37.06;100822.00;4896416;28;97014;-73
2021/05/02 08:33:56;;;;;;;24.13;16.80;;;;;;;10.39;37.15;100824.66;4896108;28;97785;-73
2021/05/02 08:36:23;;;;;;;30.38;18.08;;;;;;;10.44;37.05;100821.28;4911154;28;97065;-71
2021/05/02 08:38:50;;;;;;;26.10;17.63;;;;;;;10.53;36.91;100823.22;4899508;28;97446;-74
2021/05/02 08:41:18;;;;;;;26.63;17.33;;;;;;;10.57;36.93;100833.97;4915531;28;97024;-75
2021/05/02 08:43:50;;;;;;;26.45;17.40;;;;;;;10.61;36.80;100825.19;4902206;28;97734;-73
2021/05/02 08:46:18;;;;;;;24.30;17.55;;;;;;;10.63;36.91;100825.25;4910199;28;97283;-72
2021/05/02 08:48:47;;;;;;;29.40;17.35;;;;;;;10.61;36.84;100834.94;4894379;28;96860;-73
2021/05/02 08:51:15;;;;;;;26.52;18.35;;;;;;;10.61;36.61;100834.94;4900071;28;99150;-74
2021/05/02 08:53:42;;;;;;;25.90;17.38;;;;;;;10.63;36.51;100834.09;4884357;28;98863;-73
2021/05/02 08:56:11;;;;;;;24.63;17.08;;;;;;;10.73;36.60;100836.09;4902968;28;96861;-74
2021/05/02 08:58:39;;;;;;;25.58;19.23;;;;;;;10.68;36.29;100837.78;4901744;28;96543;-73
2021/05/02 09:01:07;;;;;;;29.27;18.80;;;;;;;10.68;36.57;100831.53;4895395;28;97216;-73
2021/05/02 09:03:40;;;;;;;24.02;16.73;;;;;;;10.66;36.54;100843.91;4903320;28;97602;-72
2021/05/02 09:06:17;;;;;;;27.58;18.17;;;;;;;10.66;36.40;100825.28;4913929;28;96886;-71
2021/05/02 09:08:50;;;;;;;22.00;17.20;;;;;;;10.67;36.41;100835.06;4899263;28;97345;-71
2021/05/02 09:11:30;;;;;;;23.20;17.35;;;;;;;10.60;36.65;100838.44;4900935;28;99223;-72
2021/05/02 09:13:59;;;;;;;23.88;17.40;;;;;;;10.59;36.48;100840.25;4896468;28;97871;-71
2021/05/02 09:16:29;;;;;;;25.23;17.25;;;;;;;10.62;36.31;100836.72;4897459;28;97029;-72
2021/05/02 09:19:00;;;;;;;24.00;18.10;;;;;;;10.64;36.41;100832.34;4893906;28;97036;-71
2021/05/02 09:21:30;;;;;;;20.70;16.88;;;;;;;10.77;36.17;100831.75;4890089;28;97445;-71
2021/05/02 09:23:59;;;;;;;22.10;17.40;;;;;;;10.86;36.07;100829.28;4893263;28;98464;-71
2021/05/02 09:26:27;;;;;;;23.08;16.75;;;;;;;10.92;35.93;100826.75;4895672;28;97253;-71
2021/05/02 09:28:56;;;;;;;21.73;15.80;;;;;;;11.06;35.81;100835.91;4897448;28;97011;-71
2021/05/02 09:31:25;;;;;;;21.98;17.15;;;;;;;11.15;35.59;100830.75;4894681;28;98085;-72
2021/05/02 09:34:15;;;;;;;18.15;14.50;;;;;;;11.20;35.68;100829.06;4895196;28;96921;-72
2021/05/02 09:36:51;;;;;;;19.02;14.50;;;;;;;11.23;35.07;100834.47;4893348;28;97152;-73
2021/05/02 09:39:40;;;;;;;20.13;15.30;;;;;;;11.21;35.48;100831.75;4914993;28;96961;-72
2021/05/02 09:42:09;;;;;;;21.17;15.07;;;;;;;11.21;35.50;100831.75;4899112;28;96927;-71
2021/05/02 09:44:38;;;;;;;18.70;15.13;;;;;;;11.23;35.27;100833.56;4913201;28;97044;-72
2021/05/02 09:47:32;;;;;;;19.60;14.82;;;;;;;11.34;34.94;100835.59;4896343;28;96883;-72
2021/05/02 09:50:06;;;;;;;18.33;14.65;;;;;;;11.46;34.45;100832.25;4898730;28;97363;-71
2021/05/02 09:52:49;;;;;;;18.02;14.18;;;;;;;11.44;34.81;100831.31;4901538;28;99479;-71
2021/05/02 09:55:24;;;;;;;18.58;13.80;;;;;;;11.52;34.67;100845.69;4899687;28;96947;-72
2021/05/02 09:58:02;;;;;;;15.35;13.30;;;;;;;11.55;34.69;100837.75;4894413;28;97624;-71
2021/05/02 10:00:35;;;;;;;17.50;13.13;;;;;;;11.65;34.69;100837.94;4892679;28;97460;-73
2021/05/02 10:03:07;;;;;;;16.60;13.43;;;;;;;11.73;34.45;100852.31;4908746;28;97032;-72
2021/05/02 10:05:36;;;;;;;16.65;12.95;;;;;;;11.85;34.46;100838.28;4882009;28;97160;-73
2021/05/02 10:08:04;;;;;;;16.55;13.68;;;;;;;11.88;34.28;100841.91;4898731;28;97378;-73
2021/05/02 10:10:32;;;;;;;17.33;13.10;;;;;;;11.94;34.11;100843.78;4900337;28;96912;-74
2021/05/02 10:13:05;;;;;;;20.48;13.85;;;;;;;11.82;34.15;100846.22;4915583;28;96958;-75
2021/05/02 10:15:33;;;;;;;16.08;13.25;;;;;;;11.69;34.33;100850.44;4902429;28;97677;-77
2021/05/02 10:18:00;;;;;;;17.55;13.32;;;;;;;11.67;34.31;100849.53;4894337;28;97145;-73
2021/05/02 10:20:29;;;;;;;14.95;12.43;;;;;;;11.60;34.40;100850.28;4910536;28;97119;-72
2021/05/02 10:22:59;;;;;;;15.02;11.70;;;;;;;11.57;34.48;100847.56;4886638;28;98799;-72
2021/05/02 10:25:26;;;;;;;13.82;11.85;;;;;;;11.57;34.36;100847.56;4893546;28;97905;-71
2021/05/02 10:27:54;;;;;;;17.35;12.85;;;;;;;11.57;34.20;100852.00;4913470;28;96917;-71
2021/05/02 10:30:25;;;;;;;16.40;11.82;;;;;;;11.67;33.99;100857.50;4909224;28;96910;-70
2021/05/02 10:33:00;;;;;;;14.98;11.73;;;;;;;11.79;33.60;100860.41;4896286;28;96982;-71
2021/05/02 10:35:46;;;;;;;16.40;12.18;;;;;;;11.92;33.82;100862.44;4897280;28;98048;-69
2021/05/02 10:38:20;;;;;;;15.02;12.45;;;;;;;11.98;33.44;100857.16;4900011;28;97458;-70
2021/05/02 10:40:47;;;;;;;13.85;11.55;;;;;;;12.01;33.62;100862.56;4894633;28;96937;-72
2021/05/02 10:43:29;;;;;;;17.35;11.60;;;;;;;12.10;33.21;100862.72;4914109;28;96973;-73
2021/05/02 10:45:57;;;;;;;14.23;11.15;;;;;;;12.17;33.41;100861.97;4901227;28;97301;-72
2021/05/02 10:48:46;;;;;;;16.58;11.95;;;;;;;12.27;32.81;100854.13;4902796;28;96877;-72
2021/05/02 10:51:30;;;;;;;14.82;11.75;;;;;;;12.33;32.88;100865.78;4921202;28;96949;-73
2021/05/02 10:54:18;;;;;;;12.52;10.48;;;;;;;12.45;32.27;100859.72;4904823;28;97310;-72
2021/05/02 10:56:48;;;;;;;12.90;10.18;;;;;;;12.62;32.55;100861.75;4906143;28;98016;-72
2021/05/02 10:59:16;;;;;;;14.40;11.55;;;;;;;12.81;32.32;100862.91;4905251;28;96809;-72
2021/05/02 11:01:44;;;;;;;16.10;11.38;;;;;;;12.97;32.07;100867.56;4905159;28;96773;-72
2021/05/02 11:04:12;;;;;;;13.10;11.52;;;;;;;13.05;31.94;100872.19;4919502;28;97845;-72
2021/05/02 11:06:54;;;;;;;16.00;13.85;;;;;;;13.04;31.10;100869.47;4918084;28;96921;-72
2021/05/02 11:09:27;;;;;;;12.93;11.52;;;;;;;13.25;31.07;100863.50;4916867;28;97103;-71
2021/05/02 11:11:56;;;;;;;14.30;11.07;;;;;;;13.37;30.98;100875.22;4903999;28;96756;-72
2021/05/02 11:14:34;;;;;;;12.60;11.23;;;;;;;13.52;30.30;100872.72;4908147;28;98077;-72
2021/05/02 11:17:26;;;;;;;13.15;10.80;;;;;;;13.59;30.40;100869.22;4903940;28;96977;-73
2021/05/02 11:19:55;;;;;;;15.27;11.65;;;;;;;13.61;30.73;100878.16;4904499;28;97153;-74